sensor_id;sensor_type;location;lat;lon;timestamp;temperature;humidity
5978;DHT22;3015;51.390;12.256;2022-12-26T00:01:18;11.10;1.00
5978;DHT22;3015;51.390;12.256;2022-12-26T00:03:44;11.10;1.00
5978;DHT22;3015;51.390;12.256;2022-12-26T00:06:15;11.10;1.00
5978;DHT22;3015;51.390;12.256;2022-12-26T00:08:41;11.10;1.00
5978;DHT22;3015;51.390;12.256;2022-12-26T00:11:08;11.10;1.00
5978;DHT22;3015;51.390;12.256;2022-12-26T00:13:33;11.00;1.00
5978;DHT22;3015;51.390;12.256;2022-12-26T00:15:59;10.90;1.00
5978;DHT22;3015;51.390;12.256;2022-12-26T00:18:25;10.80;52.70
5978;DHT22;3015;51.390;12.256;2022-12-26T00:20:50;10.80;1.00
5978;DHT22;3015;51.390;12.256;2022-12-26T00:23:16;10.70;99.90
5978;DHT22;3015;51.390;12.256;2022-12-26T00:25:41;10.70;99.90
5978;DHT22;3015;51.390;12.256;2022-12-26T00:28:07;10.60;99.90
5978;DHT22;3015;51.390;12.256;2022-12-26T00:30:33;10.60;99.90
5978;DHT22;3015;51.390;12.256;2022-12-26T00:32:58;10.60;1.00
5978;DHT22;3015;51.390;12.256;2022-12-26T00:35:24;10.50;1.00
5978;DHT22;3015;51.390;12.256;2022-12-26T00:37:49;10.40;1.00
5978;DHT22;3015;51.390;12.256;2022-12-26T00:40:15;10.30;13.90
5978;DHT22;3015;51.390;12.256;2022-12-26T00:42:41;10.20;99.90
5978;DHT22;3015;51.390;12.256;2022-12-26T00:45:07;10.20;1.00
5978;DHT22;3015;51.390;12.256;2022-12-26T00:47:33;10.20;34.70
5978;DHT22;3015;51.390;12.256;2022-12-26T00:49:58;10.10;99.90
5978;DHT22;3015;51.390;12.256;2022-12-26T00:52:24;10.10;1.00
5978;DHT22;3015;51.390;12.256;2022-12-26T00:54:49;10.00;1.00
5978;DHT22;3015;51.390;12.256;2022-12-26T00:57:15;10.10;99.90
5978;DHT22;3015;51.390;12.256;2022-12-26T00:59:41;10.20;2.50
5978;DHT22;3015;51.390;12.256;2022-12-26T01:02:06;10.10;99.90
5978;DHT22;3015;51.390;12.256;2022-12-26T01:04:52;10.00;99.90
5978;DHT22;3015;51.390;12.256;2022-12-26T01:07:17;9.80;99.90
5978;DHT22;3015;51.390;12.256;2022-12-26T01:09:43;9.80;1.00
5978;DHT22;3015;51.390;12.256;2022-12-26T01:12:08;9.60;99.90
5978;DHT22;3015;51.390;12.256;2022-12-26T01:14:34;9.40;1.00
5978;DHT22;3015;51.390;12.256;2022-12-26T01:16:59;9.40;99.90
5978;DHT22;3015;51.390;12.256;2022-12-26T01:19:25;9.40;99.90
5978;DHT22;3015;51.390;12.256;2022-12-26T01:21:51;9.30;99.90
5978;DHT22;3015;51.390;12.256;2022-12-26T01:24:16;9.40;1.00
5978;DHT22;3015;51.390;12.256;2022-12-26T01:26:42;9.50;1.00
5978;DHT22;3015;51.390;12.256;2022-12-26T01:29:08;9.60;1.00
5978;DHT22;3015;51.390;12.256;2022-12-26T01:31:33;9.70;1.00
5978;DHT22;3015;51.390;12.256;2022-12-26T01:33:59;9.80;99.90
5978;DHT22;3015;51.390;12.256;2022-12-26T01:36:25;9.80;63.20
5978;DHT22;3015;51.390;12.256;2022-12-26T01:38:50;9.80;1.00
5978;DHT22;3015;51.390;12.256;2022-12-26T01:41:16;9.90;99.90
5978;DHT22;3015;51.390;12.256;2022-12-26T01:44:02;10.10;99.90
5978;DHT22;3015;51.390;12.256;2022-12-26T01:46:39;10.30;99.90
5978;DHT22;3015;51.390;12.256;2022-12-26T01:51:39;10.40;1.00
5978;DHT22;3015;51.390;12.256;2022-12-26T01:54:07;10.50;99.90
5978;DHT22;3015;51.390;12.256;2022-12-26T01:56:36;10.80;1.00
5978;DHT22;3015;51.390;12.256;2022-12-26T01:59:10;10.90;99.90
5978;DHT22;3015;51.390;12.256;2022-12-26T02:05:02;11.10;1.00
5978;DHT22;3015;51.390;12.256;2022-12-26T02:07:46;11.10;1.00
5978;DHT22;3015;51.390;12.256;2022-12-26T02:10:15;11.20;1.00
5978;DHT22;3015;51.390;12.256;2022-12-26T02:12:41;11.30;99.90
5978;DHT22;3015;51.390;12.256;2022-12-26T02:15:10;11.20;1.00
5978;DHT22;3015;51.390;12.256;2022-12-26T02:17:37;11.30;99.90
5978;DHT22;3015;51.390;12.256;2022-12-26T02:20:16;11.30;99.90
5978;DHT22;3015;51.390;12.256;2022-12-26T02:29:04;11.40;99.90
5978;DHT22;3015;51.390;12.256;2022-12-26T02:42:38;11.30;99.90
5978;DHT22;3015;51.390;12.256;2022-12-26T02:54:19;11.50;1.00
5978;DHT22;3015;51.390;12.256;2022-12-26T02:57:12;11.60;1.00
5978;DHT22;3015;51.390;12.256;2022-12-26T03:00:15;11.60;1.00
5978;DHT22;3015;51.390;12.256;2022-12-26T03:06:14;11.60;1.00
5978;DHT22;3015;51.390;12.256;2022-12-26T03:09:03;11.70;1.00
5978;DHT22;3015;51.390;12.256;2022-12-26T03:11:53;11.70;1.00
5978;DHT22;3015;51.390;12.256;2022-12-26T03:14:53;11.60;1.00
5978;DHT22;3015;51.390;12.256;2022-12-26T03:17:33;11.70;1.00
5978;DHT22;3015;51.390;12.256;2022-12-26T03:22:38;11.80;99.90
5978;DHT22;3015;51.390;12.256;2022-12-26T03:25:12;11.80;99.90
5978;DHT22;3015;51.390;12.256;2022-12-26T03:27:57;11.80;99.90
5978;DHT22;3015;51.390;12.256;2022-12-26T03:30:23;11.80;99.90
5978;DHT22;3015;51.390;12.256;2022-12-26T03:33:07;11.80;99.90
5978;DHT22;3015;51.390;12.256;2022-12-26T03:35:53;11.80;99.90
5978;DHT22;3015;51.390;12.256;2022-12-26T03:38:23;11.60;99.90
5978;DHT22;3015;51.390;12.256;2022-12-26T03:41:01;11.70;99.90
5978;DHT22;3015;51.390;12.256;2022-12-26T03:47:19;11.60;1.00
5978;DHT22;3015;51.390;12.256;2022-12-26T03:50:18;11.60;1.00
5978;DHT22;3015;51.390;12.256;2022-12-26T03:53:14;11.60;1.00
5978;DHT22;3015;51.390;12.256;2022-12-26T03:56:10;11.70;99.90
5978;DHT22;3015;51.390;12.256;2022-12-26T03:59:26;11.70;99.90
5978;DHT22;3015;51.390;12.256;2022-12-26T04:02:14;11.70;99.90
5978;DHT22;3015;51.390;12.256;2022-12-26T04:05:01;11.60;1.00
5978;DHT22;3015;51.390;12.256;2022-12-26T04:07:55;11.50;1.00
5978;DHT22;3015;51.390;12.256;2022-12-26T04:10:48;11.60;1.00
5978;DHT22;3015;51.390;12.256;2022-12-26T04:17:16;11.80;1.00
5978;DHT22;3015;51.390;12.256;2022-12-26T04:20:19;11.80;99.90
5978;DHT22;3015;51.390;12.256;2022-12-26T04:22:54;11.80;99.90
5978;DHT22;3015;51.390;12.256;2022-12-26T04:26:05;11.80;99.90
5978;DHT22;3015;51.390;12.256;2022-12-26T04:28:51;11.80;99.90
5978;DHT22;3015;51.390;12.256;2022-12-26T04:31:53;11.90;99.90
5978;DHT22;3015;51.390;12.256;2022-12-26T04:35:18;11.90;99.90
5978;DHT22;3015;51.390;12.256;2022-12-26T04:37:55;11.90;99.90
5978;DHT22;3015;51.390;12.256;2022-12-26T04:40:45;11.80;99.90
5978;DHT22;3015;51.390;12.256;2022-12-26T04:43:32;11.70;1.00
5978;DHT22;3015;51.390;12.256;2022-12-26T04:46:19;11.70;1.00
5978;DHT22;3015;51.390;12.256;2022-12-26T04:48:47;11.70;1.00
5978;DHT22;3015;51.390;12.256;2022-12-26T04:51:33;11.80;1.00
5978;DHT22;3015;51.390;12.256;2022-12-26T04:53:58;11.90;1.00
5978;DHT22;3015;51.390;12.256;2022-12-26T04:56:24;11.90;99.90
5978;DHT22;3015;51.390;12.256;2022-12-26T04:58:50;11.80;99.90
5978;DHT22;3015;51.390;12.256;2022-12-26T05:01:16;11.80;1.00
5978;DHT22;3015;51.390;12.256;2022-12-26T05:04:00;11.80;1.00
5978;DHT22;3015;51.390;12.256;2022-12-26T05:06:44;11.70;1.00
5978;DHT22;3015;51.390;12.256;2022-12-26T05:09:28;11.70;1.00
5978;DHT22;3015;51.390;12.256;2022-12-26T05:12:00;11.70;1.00
5978;DHT22;3015;51.390;12.256;2022-12-26T05:14:26;11.70;1.00
5978;DHT22;3015;51.390;12.256;2022-12-26T05:16:52;11.60;1.00
5978;DHT22;3015;51.390;12.256;2022-12-26T05:19:36;11.50;1.00
5978;DHT22;3015;51.390;12.256;2022-12-26T05:22:21;11.40;1.00
5978;DHT22;3015;51.390;12.256;2022-12-26T05:25:16;11.30;69.60
5978;DHT22;3015;51.390;12.256;2022-12-26T05:28:02;11.20;99.90
5978;DHT22;3015;51.390;12.256;2022-12-26T05:30:46;11.30;99.90
5978;DHT22;3015;51.390;12.256;2022-12-26T05:33:12;11.30;99.90
5978;DHT22;3015;51.390;12.256;2022-12-26T05:35:57;11.30;97.10
5978;DHT22;3015;51.390;12.256;2022-12-26T05:38:23;11.30;99.90
5978;DHT22;3015;51.390;12.256;2022-12-26T05:40:48;11.20;99.90
5978;DHT22;3015;51.390;12.256;2022-12-26T05:43:14;11.10;99.90
5978;DHT22;3015;51.390;12.256;2022-12-26T05:45:40;11.10;99.90
5978;DHT22;3015;51.390;12.256;2022-12-26T05:48:05;11.00;1.00
5978;DHT22;3015;51.390;12.256;2022-12-26T05:50:31;11.00;1.00
5978;DHT22;3015;51.390;12.256;2022-12-26T05:52:57;10.80;1.00
5978;DHT22;3015;51.390;12.256;2022-12-26T05:55:23;10.60;99.90
5978;DHT22;3015;51.390;12.256;2022-12-26T05:57:49;10.50;99.90
5978;DHT22;3015;51.390;12.256;2022-12-26T06:00:15;10.30;47.90
5978;DHT22;3015;51.390;12.256;2022-12-26T06:02:41;10.20;99.90
5978;DHT22;3015;51.390;12.256;2022-12-26T06:05:07;10.00;1.00
5978;DHT22;3015;51.390;12.256;2022-12-26T06:07:33;9.70;99.90
5978;DHT22;3015;51.390;12.256;2022-12-26T06:09:58;9.70;53.70
5978;DHT22;3015;51.390;12.256;2022-12-26T06:12:24;9.50;1.00
5978;DHT22;3015;51.390;12.256;2022-12-26T06:14:49;9.20;1.00
5978;DHT22;3015;51.390;12.256;2022-12-26T06:17:15;9.00;1.00
5978;DHT22;3015;51.390;12.256;2022-12-26T06:19:41;8.80;91.80
5978;DHT22;3015;51.390;12.256;2022-12-26T06:22:06;8.70;99.90
5978;DHT22;3015;51.390;12.256;2022-12-26T06:24:32;8.50;99.90
5978;DHT22;3015;51.390;12.256;2022-12-26T06:26:57;8.30;99.90
5978;DHT22;3015;51.390;12.256;2022-12-26T06:29:23;8.10;1.00
5978;DHT22;3015;51.390;12.256;2022-12-26T06:31:49;7.90;1.00
5978;DHT22;3015;51.390;12.256;2022-12-26T06:34:14;7.70;99.90
5978;DHT22;3015;51.390;12.256;2022-12-26T06:36:41;7.60;99.90
5978;DHT22;3015;51.390;12.256;2022-12-26T06:39:06;7.50;1.00
5978;DHT22;3015;51.390;12.256;2022-12-26T06:41:32;7.30;1.00
5978;DHT22;3015;51.390;12.256;2022-12-26T06:43:57;7.20;99.90
5978;DHT22;3015;51.390;12.256;2022-12-26T06:46:25;7.20;1.00
5978;DHT22;3015;51.390;12.256;2022-12-26T06:48:52;7.10;50.90
5978;DHT22;3015;51.390;12.256;2022-12-26T06:51:23;7.20;1.00
5978;DHT22;3015;51.390;12.256;2022-12-26T06:53:50;7.20;1.00
5978;DHT22;3015;51.390;12.256;2022-12-26T06:56:19;7.40;7.90
5978;DHT22;3015;51.390;12.256;2022-12-26T06:58:45;7.40;1.00
5978;DHT22;3015;51.390;12.256;2022-12-26T07:01:13;7.50;1.00
5978;DHT22;3015;51.390;12.256;2022-12-26T07:03:40;7.60;1.00
5978;DHT22;3015;51.390;12.256;2022-12-26T07:06:10;7.90;99.90
5978;DHT22;3015;51.390;12.256;2022-12-26T07:08:36;8.00;99.90
5978;DHT22;3015;51.390;12.256;2022-12-26T07:11:02;8.20;1.00
5978;DHT22;3015;51.390;12.256;2022-12-26T07:13:28;8.40;99.90
5978;DHT22;3015;51.390;12.256;2022-12-26T07:15:54;8.60;99.90
5978;DHT22;3015;51.390;12.256;2022-12-26T07:18:19;8.70;2.00
5978;DHT22;3015;51.390;12.256;2022-12-26T07:20:45;8.80;1.00
5978;DHT22;3015;51.390;12.256;2022-12-26T07:23:11;8.90;99.90
5978;DHT22;3015;51.390;12.256;2022-12-26T07:25:36;9.00;99.90
5978;DHT22;3015;51.390;12.256;2022-12-26T07:28:03;9.10;99.90
5978;DHT22;3015;51.390;12.256;2022-12-26T07:30:28;9.20;1.00
5978;DHT22;3015;51.390;12.256;2022-12-26T07:32:54;9.40;99.90
5978;DHT22;3015;51.390;12.256;2022-12-26T07:35:20;9.60;1.00
5978;DHT22;3015;51.390;12.256;2022-12-26T07:37:45;9.70;38.80
5978;DHT22;3015;51.390;12.256;2022-12-26T07:40:11;9.80;1.00
5978;DHT22;3015;51.390;12.256;2022-12-26T07:42:37;10.00;99.90
5978;DHT22;3015;51.390;12.256;2022-12-26T07:45:03;10.10;99.90
5978;DHT22;3015;51.390;12.256;2022-12-26T07:47:29;10.20;1.00
5978;DHT22;3015;51.390;12.256;2022-12-26T07:49:54;10.20;99.90
5978;DHT22;3015;51.390;12.256;2022-12-26T07:52:20;10.30;99.90
5978;DHT22;3015;51.390;12.256;2022-12-26T07:54:46;10.60;99.90
5978;DHT22;3015;51.390;12.256;2022-12-26T07:57:11;10.60;99.90
5978;DHT22;3015;51.390;12.256;2022-12-26T07:59:37;10.70;1.00
5978;DHT22;3015;51.390;12.256;2022-12-26T08:02:02;10.80;1.00
5978;DHT22;3015;51.390;12.256;2022-12-26T08:04:31;10.80;99.90
5978;DHT22;3015;51.390;12.256;2022-12-26T08:06:57;10.80;99.90
5978;DHT22;3015;51.390;12.256;2022-12-26T08:09:22;10.90;1.00
5978;DHT22;3015;51.390;12.256;2022-12-26T08:11:48;10.90;1.00
5978;DHT22;3015;51.390;12.256;2022-12-26T08:14:14;11.10;99.90
5978;DHT22;3015;51.390;12.256;2022-12-26T08:16:43;11.10;99.90
5978;DHT22;3015;51.390;12.256;2022-12-26T08:19:10;11.20;99.90
5978;DHT22;3015;51.390;12.256;2022-12-26T08:21:36;11.20;1.00
5978;DHT22;3015;51.390;12.256;2022-12-26T08:24:01;11.20;99.90
5978;DHT22;3015;51.390;12.256;2022-12-26T08:26:27;11.20;1.00
5978;DHT22;3015;51.390;12.256;2022-12-26T08:28:54;11.20;19.10
5978;DHT22;3015;51.390;12.256;2022-12-26T08:31:20;11.20;15.50
5978;DHT22;3015;51.390;12.256;2022-12-26T08:33:46;11.30;33.50
5978;DHT22;3015;51.390;12.256;2022-12-26T08:36:13;11.20;99.90
5978;DHT22;3015;51.390;12.256;2022-12-26T08:38:41;11.20;99.90
5978;DHT22;3015;51.390;12.256;2022-12-26T08:41:07;11.20;99.90
5978;DHT22;3015;51.390;12.256;2022-12-26T08:43:32;11.30;1.00
5978;DHT22;3015;51.390;12.256;2022-12-26T08:46:04;11.30;95.20
5978;DHT22;3015;51.390;12.256;2022-12-26T08:48:30;11.40;1.00
5978;DHT22;3015;51.390;12.256;2022-12-26T08:51:01;11.50;1.00
5978;DHT22;3015;51.390;12.256;2022-12-26T08:53:29;11.30;1.00
5978;DHT22;3015;51.390;12.256;2022-12-26T08:55:57;11.30;1.00
5978;DHT22;3015;51.390;12.256;2022-12-26T08:58:23;11.40;1.00
5978;DHT22;3015;51.390;12.256;2022-12-26T09:00:49;11.50;1.00
5978;DHT22;3015;51.390;12.256;2022-12-26T09:03:15;11.60;99.90
5978;DHT22;3015;51.390;12.256;2022-12-26T09:05:41;11.60;99.90
5978;DHT22;3015;51.390;12.256;2022-12-26T09:08:06;11.70;99.90
5978;DHT22;3015;51.390;12.256;2022-12-26T09:10:32;11.80;89.40
5978;DHT22;3015;51.390;12.256;2022-12-26T09:12:58;11.90;1.00
5978;DHT22;3015;51.390;12.256;2022-12-26T09:15:24;12.00;1.00
5978;DHT22;3015;51.390;12.256;2022-12-26T09:17:50;11.90;1.00
5978;DHT22;3015;51.390;12.256;2022-12-26T09:20:15;12.10;1.00
5978;DHT22;3015;51.390;12.256;2022-12-26T09:22:41;12.10;99.90
5978;DHT22;3015;51.390;12.256;2022-12-26T09:25:21;12.10;99.90
5978;DHT22;3015;51.390;12.256;2022-12-26T09:27:48;12.10;99.90
5978;DHT22;3015;51.390;12.256;2022-12-26T09:30:14;12.20;99.90
5978;DHT22;3015;51.390;12.256;2022-12-26T09:32:39;12.10;99.90
5978;DHT22;3015;51.390;12.256;2022-12-26T09:35:05;12.20;99.90
5978;DHT22;3015;51.390;12.256;2022-12-26T09:37:31;12.20;99.90
5978;DHT22;3015;51.390;12.256;2022-12-26T09:39:57;12.20;99.90
5978;DHT22;3015;51.390;12.256;2022-12-26T09:42:38;12.20;99.90
5978;DHT22;3015;51.390;12.256;2022-12-26T09:45:12;12.20;99.90
5978;DHT22;3015;51.390;12.256;2022-12-26T09:47:54;12.10;99.90
5978;DHT22;3015;51.390;12.256;2022-12-26T09:50:30;12.10;99.90
5978;DHT22;3015;51.390;12.256;2022-12-26T09:53:03;12.10;1.00
5978;DHT22;3015;51.390;12.256;2022-12-26T09:55:48;11.90;1.00
5978;DHT22;3015;51.390;12.256;2022-12-26T09:58:29;11.80;99.90
5978;DHT22;3015;51.390;12.256;2022-12-26T10:01:12;11.70;1.00
5978;DHT22;3015;51.390;12.256;2022-12-26T10:03:47;11.60;99.90
5978;DHT22;3015;51.390;12.256;2022-12-26T10:20:12;11.20;64.70
5978;DHT22;3015;51.390;12.256;2022-12-26T10:23:25;11.20;1.00
5978;DHT22;3015;51.390;12.256;2022-12-26T10:31:19;11.00;99.90
5978;DHT22;3015;51.390;12.256;2022-12-26T10:33:47;11.00;1.00
5978;DHT22;3015;51.390;12.256;2022-12-26T10:36:30;11.00;99.90
5978;DHT22;3015;51.390;12.256;2022-12-26T10:38:58;11.00;1.00
5978;DHT22;3015;51.390;12.256;2022-12-26T10:41:40;11.10;72.80
5978;DHT22;3015;51.390;12.256;2022-12-26T10:44:12;11.10;92.60
5978;DHT22;3015;51.390;12.256;2022-12-26T10:47:01;11.10;1.00
5978;DHT22;3015;51.390;12.256;2022-12-26T10:49:28;11.00;99.90
5978;DHT22;3015;51.390;12.256;2022-12-26T10:51:56;10.90;1.00
5978;DHT22;3015;51.390;12.256;2022-12-26T10:54:23;10.80;1.00
5978;DHT22;3015;51.390;12.256;2022-12-26T10:56:50;10.70;99.90
5978;DHT22;3015;51.390;12.256;2022-12-26T10:59:20;10.60;99.90
5978;DHT22;3015;51.390;12.256;2022-12-26T11:01:47;10.50;99.90
5978;DHT22;3015;51.390;12.256;2022-12-26T11:04:19;10.40;55.40
5978;DHT22;3015;51.390;12.256;2022-12-26T11:06:48;10.50;99.90
5978;DHT22;3015;51.390;12.256;2022-12-26T11:09:41;10.40;97.10
5978;DHT22;3015;51.390;12.256;2022-12-26T11:14:58;10.40;99.90
5978;DHT22;3015;51.390;12.256;2022-12-26T11:17:27;10.30;99.90
5978;DHT22;3015;51.390;12.256;2022-12-26T11:20:29;10.30;99.90
5978;DHT22;3015;51.390;12.256;2022-12-26T11:23:32;10.20;99.90
5978;DHT22;3015;51.390;12.256;2022-12-26T11:25:59;10.20;99.90
5978;DHT22;3015;51.390;12.256;2022-12-26T11:28:30;10.20;99.90
5978;DHT22;3015;51.390;12.256;2022-12-26T11:30:57;10.20;99.90
5978;DHT22;3015;51.390;12.256;2022-12-26T11:33:43;10.20;99.90
5978;DHT22;3015;51.390;12.256;2022-12-26T11:39:05;10.00;99.90
5978;DHT22;3015;51.390;12.256;2022-12-26T11:49:18;9.80;99.90
5978;DHT22;3015;51.390;12.256;2022-12-26T11:51:47;9.70;88.10
5978;DHT22;3015;51.390;12.256;2022-12-26T11:57:00;9.60;99.90
5978;DHT22;3015;51.390;12.256;2022-12-26T11:59:26;9.60;99.90
5978;DHT22;3015;51.390;12.256;2022-12-26T12:02:21;9.60;99.90
5978;DHT22;3015;51.390;12.256;2022-12-26T12:04:48;9.60;99.90
5978;DHT22;3015;51.390;12.256;2022-12-26T12:07:33;9.50;99.90
5978;DHT22;3015;51.390;12.256;2022-12-26T12:15:49;9.50;99.90
5978;DHT22;3015;51.390;12.256;2022-12-26T12:18:52;9.50;99.90
5978;DHT22;3015;51.390;12.256;2022-12-26T12:24:12;9.50;99.90
5978;DHT22;3015;51.390;12.256;2022-12-26T12:29:38;9.50;99.90
5978;DHT22;3015;51.390;12.256;2022-12-26T12:32:28;9.50;99.90
5978;DHT22;3015;51.390;12.256;2022-12-26T12:48:55;9.40;1.00
5978;DHT22;3015;51.390;12.256;2022-12-26T13:02:29;9.50;1.00
5978;DHT22;3015;51.390;12.256;2022-12-26T13:05:25;9.50;99.90
5978;DHT22;3015;51.390;12.256;2022-12-26T13:07:53;9.50;1.00
5978;DHT22;3015;51.390;12.256;2022-12-26T13:10:26;9.60;1.00
5978;DHT22;3015;51.390;12.256;2022-12-26T13:12:53;9.60;99.90
5978;DHT22;3015;51.390;12.256;2022-12-26T13:18:13;9.70;99.90
5978;DHT22;3015;51.390;12.256;2022-12-26T13:20:47;9.70;90.90
5978;DHT22;3015;51.390;12.256;2022-12-26T13:26:25;9.70;99.90
5978;DHT22;3015;51.390;12.256;2022-12-26T13:28:58;9.70;99.90
5978;DHT22;3015;51.390;12.256;2022-12-26T13:31:25;9.70;99.90
5978;DHT22;3015;51.390;12.256;2022-12-26T13:33:56;9.70;1.60
5978;DHT22;3015;51.390;12.256;2022-12-26T13:36:43;9.70;1.00
5978;DHT22;3015;51.390;12.256;2022-12-26T13:44:53;9.80;1.00
5978;DHT22;3015;51.390;12.256;2022-12-26T13:47:34;9.80;99.90
5978;DHT22;3015;51.390;12.256;2022-12-26T13:53:06;9.80;99.90
5978;DHT22;3015;51.390;12.256;2022-12-26T13:55:47;9.80;99.90
5978;DHT22;3015;51.390;12.256;2022-12-26T14:00:56;9.90;1.00
5978;DHT22;3015;51.390;12.256;2022-12-26T14:10:02;10.00;99.90
5978;DHT22;3015;51.390;12.256;2022-12-26T14:18:27;10.00;1.00
5978;DHT22;3015;51.390;12.256;2022-12-26T14:29:37;9.80;99.90
5978;DHT22;3015;51.390;12.256;2022-12-26T14:32:33;9.80;85.80
5978;DHT22;3015;51.390;12.256;2022-12-26T14:35:17;9.80;1.00
5978;DHT22;3015;51.390;12.256;2022-12-26T14:56:02;9.30;99.90
5978;DHT22;3015;51.390;12.256;2022-12-26T14:58:51;9.20;2.10
5978;DHT22;3015;51.390;12.256;2022-12-26T15:17:00;8.50;1.00
5978;DHT22;3015;51.390;12.256;2022-12-26T15:20:04;8.30;1.00
5978;DHT22;3015;51.390;12.256;2022-12-26T15:25:52;8.00;96.60
5978;DHT22;3015;51.390;12.256;2022-12-26T15:33:59;7.70;99.90
5978;DHT22;3015;51.390;12.256;2022-12-26T15:39:47;7.90;99.90
5978;DHT22;3015;51.390;12.256;2022-12-26T15:56:24;8.70;99.90
5978;DHT22;3015;51.390;12.256;2022-12-26T16:01:45;8.60;54.30
5978;DHT22;3015;51.390;12.256;2022-12-26T16:07:31;8.70;99.90
5978;DHT22;3015;51.390;12.256;2022-12-26T16:09:59;8.80;96.70
5978;DHT22;3015;51.390;12.256;2022-12-26T16:12:30;8.80;99.90
5978;DHT22;3015;51.390;12.256;2022-12-26T16:17:33;8.80;1.00
5978;DHT22;3015;51.390;12.256;2022-12-26T16:20:10;8.80;1.00
5978;DHT22;3015;51.390;12.256;2022-12-26T16:22:41;8.90;1.00
5978;DHT22;3015;51.390;12.256;2022-12-26T16:25:24;9.10;1.00
5978;DHT22;3015;51.390;12.256;2022-12-26T16:27:53;9.10;1.00
5978;DHT22;3015;51.390;12.256;2022-12-26T16:30:21;9.10;2.40
5978;DHT22;3015;51.390;12.256;2022-12-26T16:32:48;9.20;1.00
5978;DHT22;3015;51.390;12.256;2022-12-26T16:35:26;9.30;99.90
5978;DHT22;3015;51.390;12.256;2022-12-26T16:37:54;9.30;1.00
5978;DHT22;3015;51.390;12.256;2022-12-26T16:40:31;9.40;99.90
5978;DHT22;3015;51.390;12.256;2022-12-26T16:43:24;9.50;70.30
5978;DHT22;3015;51.390;12.256;2022-12-26T16:45:53;9.50;1.00
5978;DHT22;3015;51.390;12.256;2022-12-26T16:48:21;9.50;1.00
5978;DHT22;3015;51.390;12.256;2022-12-26T16:50:58;9.50;1.00
5978;DHT22;3015;51.390;12.256;2022-12-26T16:53:41;9.50;6.60
5978;DHT22;3015;51.390;12.256;2022-12-26T16:56:26;9.50;1.00
5978;DHT22;3015;51.390;12.256;2022-12-26T16:59:17;9.50;1.00
5978;DHT22;3015;51.390;12.256;2022-12-26T17:01:51;9.50;1.00
5978;DHT22;3015;51.390;12.256;2022-12-26T17:04:20;9.60;99.90
5978;DHT22;3015;51.390;12.256;2022-12-26T17:06:51;9.60;1.00
5978;DHT22;3015;51.390;12.256;2022-12-26T17:09:18;9.60;99.90
5978;DHT22;3015;51.390;12.256;2022-12-26T17:11:55;9.60;99.90
5978;DHT22;3015;51.390;12.256;2022-12-26T17:14:36;9.60;15.70
5978;DHT22;3015;51.390;12.256;2022-12-26T17:17:06;9.50;99.90
5978;DHT22;3015;51.390;12.256;2022-12-26T17:19:35;9.60;60.00
5978;DHT22;3015;51.390;12.256;2022-12-26T17:24:39;9.60;99.90
5978;DHT22;3015;51.390;12.256;2022-12-26T17:27:16;9.60;99.90
5978;DHT22;3015;51.390;12.256;2022-12-26T17:29:54;9.60;99.90
5978;DHT22;3015;51.390;12.256;2022-12-26T17:35:10;9.50;1.00
5978;DHT22;3015;51.390;12.256;2022-12-26T17:37:37;9.60;1.00
5978;DHT22;3015;51.390;12.256;2022-12-26T17:43:06;9.70;65.90
5978;DHT22;3015;51.390;12.256;2022-12-26T17:45:30;9.80;1.00
5978;DHT22;3015;51.390;12.256;2022-12-26T17:47:56;9.80;99.90
5978;DHT22;3015;51.390;12.256;2022-12-26T17:50:24;9.80;1.00
5978;DHT22;3015;51.390;12.256;2022-12-26T17:52:53;9.80;1.00
5978;DHT22;3015;51.390;12.256;2022-12-26T17:55:25;9.80;1.00
5978;DHT22;3015;51.390;12.256;2022-12-26T17:57:52;9.80;1.00
5978;DHT22;3015;51.390;12.256;2022-12-26T18:00:20;9.80;99.90
5978;DHT22;3015;51.390;12.256;2022-12-26T18:02:47;9.80;54.70
5978;DHT22;3015;51.390;12.256;2022-12-26T18:05:13;9.90;99.90
5978;DHT22;3015;51.390;12.256;2022-12-26T18:07:39;9.90;99.90
5978;DHT22;3015;51.390;12.256;2022-12-26T18:10:05;9.90;1.00
5978;DHT22;3015;51.390;12.256;2022-12-26T18:12:31;9.80;1.00
5978;DHT22;3015;51.390;12.256;2022-12-26T18:14:57;9.80;1.00
5978;DHT22;3015;51.390;12.256;2022-12-26T18:17:22;9.80;38.70
5978;DHT22;3015;51.390;12.256;2022-12-26T18:19:48;9.80;99.90
5978;DHT22;3015;51.390;12.256;2022-12-26T18:22:16;9.70;93.70
5978;DHT22;3015;51.390;12.256;2022-12-26T18:24:43;9.60;99.90
5978;DHT22;3015;51.390;12.256;2022-12-26T18:27:21;9.50;92.60
5978;DHT22;3015;51.390;12.256;2022-12-26T18:29:49;9.20;99.90
5978;DHT22;3015;51.390;12.256;2022-12-26T18:32:30;9.10;99.90
5978;DHT22;3015;51.390;12.256;2022-12-26T18:34:56;9.00;99.90
5978;DHT22;3015;51.390;12.256;2022-12-26T18:37:23;8.80;1.00
5978;DHT22;3015;51.390;12.256;2022-12-26T18:39:49;8.60;1.00
5978;DHT22;3015;51.390;12.256;2022-12-26T18:42:16;8.40;99.90
5978;DHT22;3015;51.390;12.256;2022-12-26T18:44:43;8.30;1.00
5978;DHT22;3015;51.390;12.256;2022-12-26T18:47:15;8.20;99.90
5978;DHT22;3015;51.390;12.256;2022-12-26T18:49:41;8.10;99.90
5978;DHT22;3015;51.390;12.256;2022-12-26T18:52:07;8.00;1.00
5978;DHT22;3015;51.390;12.256;2022-12-26T18:54:33;7.90;1.00
5978;DHT22;3015;51.390;12.256;2022-12-26T18:57:01;7.80;99.90
5978;DHT22;3015;51.390;12.256;2022-12-26T18:59:26;7.80;99.90
5978;DHT22;3015;51.390;12.256;2022-12-26T19:01:52;7.80;99.90
5978;DHT22;3015;51.390;12.256;2022-12-26T19:04:18;7.70;99.90
5978;DHT22;3015;51.390;12.256;2022-12-26T19:06:43;7.90;99.90
5978;DHT22;3015;51.390;12.256;2022-12-26T19:09:10;7.80;99.90
5978;DHT22;3015;51.390;12.256;2022-12-26T19:11:36;7.90;6.40
5978;DHT22;3015;51.390;12.256;2022-12-26T19:14:04;7.80;69.00
5978;DHT22;3015;51.390;12.256;2022-12-26T19:16:32;7.80;48.80
5978;DHT22;3015;51.390;12.256;2022-12-26T19:18:58;7.70;1.00
5978;DHT22;3015;51.390;12.256;2022-12-26T19:21:24;7.60;1.00
5978;DHT22;3015;51.390;12.256;2022-12-26T19:23:49;7.50;99.90
5978;DHT22;3015;51.390;12.256;2022-12-26T19:26:16;7.40;1.00
5978;DHT22;3015;51.390;12.256;2022-12-26T19:28:42;7.40;1.00
5978;DHT22;3015;51.390;12.256;2022-12-26T19:31:10;7.30;1.00
5978;DHT22;3015;51.390;12.256;2022-12-26T19:33:36;7.10;1.00
5978;DHT22;3015;51.390;12.256;2022-12-26T19:36:03;6.90;1.00
5978;DHT22;3015;51.390;12.256;2022-12-26T19:38:29;6.80;99.90
5978;DHT22;3015;51.390;12.256;2022-12-26T19:41:03;6.70;99.90
5978;DHT22;3015;51.390;12.256;2022-12-26T19:43:30;6.60;99.90
5978;DHT22;3015;51.390;12.256;2022-12-26T19:46:05;6.50;1.00
5978;DHT22;3015;51.390;12.256;2022-12-26T19:48:32;6.50;99.90
5978;DHT22;3015;51.390;12.256;2022-12-26T19:51:17;6.40;99.90
5978;DHT22;3015;51.390;12.256;2022-12-26T19:53:44;6.50;99.90
5978;DHT22;3015;51.390;12.256;2022-12-26T19:58:37;6.40;99.90
5978;DHT22;3015;51.390;12.256;2022-12-26T20:01:17;6.30;99.90
5978;DHT22;3015;51.390;12.256;2022-12-26T20:03:43;6.30;1.00
5978;DHT22;3015;51.390;12.256;2022-12-26T20:06:15;6.30;1.00
5978;DHT22;3015;51.390;12.256;2022-12-26T20:08:42;6.20;99.90
5978;DHT22;3015;51.390;12.256;2022-12-26T20:11:13;6.20;99.90
5978;DHT22;3015;51.390;12.256;2022-12-26T20:13:40;6.20;1.00
5978;DHT22;3015;51.390;12.256;2022-12-26T20:16:12;6.10;5.80
5978;DHT22;3015;51.390;12.256;2022-12-26T20:18:38;6.10;1.00
5978;DHT22;3015;51.390;12.256;2022-12-26T20:21:05;6.10;99.90
5978;DHT22;3015;51.390;12.256;2022-12-26T20:23:31;6.10;1.00
5978;DHT22;3015;51.390;12.256;2022-12-26T20:26:02;6.00;99.90